TimeMST,TemperatureF,Dew PointF,Humidity,Sea Level PressureIn,VisibilityMPH,Wind Direction,Wind SpeedMPH,Gust SpeedMPH,PrecipitationIn,Events,Conditions,WindDirDegrees,DateUTC
12:15 AM,64.4,15.8,15,29.97,-9999.0,NNW,10.4,-,N/A,,Clear,340,2012-10-26 07:15:00
12:35 AM,62.6,15.8,16,29.97,-9999.0,NNW,9.2,-,N/A,,Clear,340,2012-10-26 07:35:00
12:55 AM,62.6,15.8,16,29.98,-9999.0,NNE,4.6,-,N/A,,Clear,20,2012-10-26 07:55:00
1:15 AM,60.8,15.8,17,29.98,-9999.0,NNE,4.6,-,N/A,,Clear,30,2012-10-26 08:15:00
1:35 AM,60.8,15.8,17,29.99,-9999.0,NNE,5.8,-,N/A,,Clear,30,2012-10-26 08:35:00
1:55 AM,60.8,14.0,16,29.98,-9999.0,NNW,9.2,-,N/A,,Clear,340,2012-10-26 08:55:00
2:15 AM,62.6,14.0,15,29.99,-9999.0,NE,6.9,-,N/A,,Clear,40,2012-10-26 09:15:00
2:35 AM,59.0,14.0,17,29.99,-9999.0,North,5.8,-,N/A,,Clear,350,2012-10-26 09:35:00
2:55 AM,60.8,14.0,16,29.99,-9999.0,North,9.2,-,N/A,,Clear,360,2012-10-26 09:55:00
3:15 AM,59.0,14.0,17,29.99,-9999.0,North,8.1,-,N/A,,Clear,360,2012-10-26 10:15:00
3:35 AM,59.0,14.0,17,29.99,-9999.0,NNW,5.8,-,N/A,,Clear,340,2012-10-26 10:35:00
3:55 AM,55.4,21.2,26,29.99,-9999.0,NW,4.6,-,N/A,,Clear,320,2012-10-26 10:55:00
4:15 AM,57.2,15.8,20,30.00,-9999.0,North,3.5,-,N/A,,Clear,10,2012-10-26 11:15:00
4:35 AM,59.0,17.6,20,30.01,-9999.0,North,5.8,-,N/A,,Clear,10,2012-10-26 11:35:00
4:55 AM,59.0,17.6,20,30.01,-9999.0,North,3.5,-,N/A,,Clear,350,2012-10-26 11:55:00
5:15 AM,57.2,17.6,21,30.02,-9999.0,North,3.5,-,N/A,,Clear,350,2012-10-26 12:15:00
5:55 AM,55.4,17.6,23,30.02,-9999.0,North,8.1,-,N/A,,Clear,350,2012-10-26 12:55:00
6:35 AM,57.2,17.6,21,30.03,-9999.0,North,10.4,-,N/A,,Clear,350,2012-10-26 13:35:00
6:55 AM,57.2,17.6,21,30.03,-9999.0,North,12.7,-,N/A,,Clear,360,2012-10-26 13:55:00
7:15 AM,57.2,17.6,21,30.04,-9999.0,NNW,10.4,-,N/A,,Clear,340,2012-10-26 14:15:00
7:35 AM,57.2,17.6,21,30.05,-9999.0,NNW,11.5,-,N/A,,Clear,340,2012-10-26 14:35:00
7:55 AM,59.0,17.6,20,30.05,-9999.0,NNW,10.4,-,N/A,,Clear,340,2012-10-26 14:55:00
8:15 AM,62.6,17.6,18,30.06,-9999.0,NNW,9.2,-,N/A,,Clear,340,2012-10-26 15:15:00
8:35 AM,64.4,17.6,16,30.07,-9999.0,NNW,9.2,-,N/A,,Clear,340,2012-10-26 15:35:00
8:55 AM,66.2,17.6,15,30.07,-9999.0,NNW,6.9,-,N/A,,Clear,330,2012-10-26 15:55:00
9:15 AM,69.8,15.8,13,30.07,-9999.0,Calm,Calm,-,N/A,,Clear,0,2012-10-26 16:15:00
9:35 AM,71.6,17.6,13,30.08,-9999.0,SE,3.5,-,N/A,,Clear,140,2012-10-26 16:35:00
9:55 AM,71.6,19.4,14,30.07,-9999.0,Calm,Calm,-,N/A,,Clear,0,2012-10-26 16:55:00
10:15 AM,73.4,15.8,11,30.07,-9999.0,ENE,8.1,-,N/A,,Clear,70,2012-10-26 17:15:00
10:35 AM,75.2,14.0,10,30.07,-9999.0,ENE,11.5,-,N/A,,Clear,70,2012-10-26 17:35:00
10:55 AM,75.2,14.0,10,30.06,-9999.0,ENE,9.2,-,N/A,,Clear,60,2012-10-26 17:55:00
11:15 AM,77.0,14.0,9,30.06,-9999.0,ENE,10.4,16.1,N/A,,Clear,70,2012-10-26 18:15:00
11:35 AM,77.0,14.0,9,30.05,-9999.0,ENE,10.4,-,N/A,,Clear,60,2012-10-26 18:35:00
11:55 AM,77.0,14.0,9,30.04,-9999.0,ENE,13.8,17.3,N/A,,Clear,60,2012-10-26 18:55:00
12:15 PM,77.0,14.0,9,30.03,-9999.0,ENE,10.4,-,N/A,,Clear,60,2012-10-26 19:15:00
12:35 PM,78.8,12.2,8,30.02,-9999.0,North,4.6,-,N/A,,Clear,350,2012-10-26 19:35:00
12:55 PM,78.8,12.2,8,30.00,-9999.0,North,5.8,-,N/A,,Clear,350,2012-10-26 19:55:00
1:15 PM,78.8,10.4,7,29.99,-9999.0,NW,4.6,-,N/A,,Clear,320,2012-10-26 20:15:00
1:35 PM,80.6,10.4,7,29.98,-9999.0,NE,3.5,-,N/A,,Clear,40,2012-10-26 20:35:00
1:55 PM,80.6,10.4,7,29.97,-9999.0,WNW,8.1,-,N/A,,Clear,300,2012-10-26 20:55:00
2:15 PM,80.6,10.4,7,29.96,-9999.0,SE,5.8,-,N/A,,Clear,140,2012-10-26 21:15:00
2:35 PM,80.6,8.6,6,29.95,-9999.0,NW,5.8,-,N/A,,Clear,310,2012-10-26 21:35:00
2:55 PM,80.6,8.6,6,29.95,-9999.0,NNE,6.9,17.3,N/A,,Clear,30,2012-10-26 21:55:00
3:15 PM,82.4,8.6,6,29.94,-9999.0,ENE,6.9,-,N/A,,Clear,60,2012-10-26 22:15:00
3:35 PM,80.6,8.6,6,29.94,-9999.0,ENE,3.5,-,N/A,,Clear,60,2012-10-26 22:35:00
3:55 PM,80.6,10.4,7,29.93,-9999.0,South,4.6,-,N/A,,Clear,180,2012-10-26 22:55:00
4:15 PM,82.4,6.8,6,29.93,-9999.0,NW,6.9,-,N/A,,Clear,320,2012-10-26 23:15:00
4:35 PM,80.6,8.6,6,29.92,-9999.0,NW,8.1,-,N/A,,Clear,320,2012-10-26 23:35:00
4:55 PM,80.6,8.6,6,29.92,-9999.0,NNW,8.1,-,N/A,,Clear,330,2012-10-26 23:55:00
5:15 PM,80.6,8.6,6,29.92,-9999.0,NNW,8.1,-,N/A,,Clear,330,2012-10-27 00:15:00
5:35 PM,77.0,10.4,8,29.92,-9999.0,NW,6.9,-,N/A,,Clear,320,2012-10-27 00:35:00
5:55 PM,75.2,10.4,8,29.92,-9999.0,NW,6.9,-,N/A,,Clear,310,2012-10-27 00:55:00
6:15 PM,73.4,10.4,9,29.92,-9999.0,NW,6.9,-,N/A,,Clear,320,2012-10-27 01:15:00
6:35 PM,71.6,12.2,10,29.93,-9999.0,NW,6.9,-,N/A,,Clear,320,2012-10-27 01:35:00
7:15 PM,66.2,10.4,11,29.93,-9999.0,NNW,8.1,-,N/A,,Clear,340,2012-10-27 02:15:00
7:35 PM,66.2,10.4,11,29.93,-9999.0,North,8.1,-,N/A,,Clear,360,2012-10-27 02:35:00
8:15 PM,64.4,10.4,12,29.94,-9999.0,NNW,8.1,-,N/A,,Clear,340,2012-10-27 03:15:00
8:35 PM,64.4,8.6,11,29.94,-9999.0,NNW,8.1,-,N/A,,Clear,340,2012-10-27 03:35:00
8:55 PM,62.6,10.4,13,29.94,-9999.0,NNW,8.1,-,N/A,,Clear,330,2012-10-27 03:55:00
9:15 PM,60.8,10.4,14,29.94,-9999.0,NW,9.2,-,N/A,,Clear,320,2012-10-27 04:15:00
9:35 PM,64.4,10.4,12,29.94,-9999.0,NNW,10.4,-,N/A,,Clear,330,2012-10-27 04:35:00
9:55 PM,66.2,14.0,13,29.94,-9999.0,NNW,11.5,-,N/A,,Clear,330,2012-10-27 04:55:00
10:15 PM,66.2,12.2,12,29.94,-9999.0,NNW,10.4,-,N/A,,Clear,330,2012-10-27 05:15:00
10:35 PM,64.4,14.0,14,29.94,-9999.0,NW,10.4,-,N/A,,Clear,320,2012-10-27 05:35:00
10:55 PM,64.4,12.2,13,29.94,-9999.0,NNW,11.5,-,N/A,,Clear,330,2012-10-27 05:55:00
11:15 PM,62.6,14.0,15,29.93,-9999.0,NNW,9.2,-,N/A,,Clear,340,2012-10-27 06:15:00
11:35 PM,62.6,12.2,14,29.93,-9999.0,NNW,9.2,-,N/A,,Clear,340,2012-10-27 06:35:00
11:55 PM,60.8,12.2,15,29.92,-9999.0,North,5.8,-,N/A,,Clear,10,2012-10-27 06:55:00